Yangon, Myanmar

5:42 PM MMT on November 01, 2014 (GMT +0630)
Yangon International | Change Station
CLOSE
Current Station
Airport
Location: Yangon,
Elevation: 108 ft
Nearby Weather Stations

Elev 108 ft 16.91 °N, 96.14 °E | Updated 12 minutes ago

Mostly Cloudy
Mostly Cloudy
86 °F
Feels Like 97 °F
N
6
Wind Variable Wind from NE

Today
High -- | Low -- °F
--% Chance of Precip.
Yesterday
High -- | Low -- °F
Precip. -- in
6:03 AM 5:34 PM
Waxing Gibbous, 65% visible
Pressure 29.77 in
Visibility 5.6 miles
Clouds Mostly Cloudy 1500 ft
Few 2000 ft
Mostly Cloudy 11000 ft
Heat Index 97 °F
Dew Point 77 °F
Humidity 74%
Rainfall 0.00 in
Snow Depth Not available.
UV 0 out of 12
Pollen Not available.
Air Quality Not available.
Flu Activity Not available.
METAR VYYY 011100Z 05005KT 9000 BKN015 FEW020TCU BKN110 30/25 Q1008

More Conditions Fewer Conditions

Pressure 29.77 in
Visibility 5.6 miles
Clouds Mostly Cloudy 1500 ft
Few 2000 ft
Mostly Cloudy 11000 ft
Heat Index 97 °F
Dew Point 77 °F
Humidity 74%
Rainfall 0.00 in
Snow Depth Not available.
UV 0 out of 12
Pollen Not available.
Air Quality Not available.
Flu Activity Not available.
METAR VYYY 011100Z 05005KT 9000 BKN015 FEW020TCU BKN110 30/25 Q1008

More Conditions Fewer Conditions

10-Day Weather Forecast

Almanac

Astronomy

Nov. 01, 2014 Rise Set
Actual Time
Civil Twilight
Nautical Twilight
Astronomical Twilight
Moon
Length of Visible Light
Length of Day
Tomorrow will be .
, % of the Moon is Illuminated

Today's Extremes

Country Highs Country Lows

Community

WunderPhotos

Upload Photos

1,766,878 photos uploaded!

WunderBlogs® & News

Nearby

Air Quality

  Air Quality AQ Index Pollutant
Not available.

Snow Depth

Station Depth Elevation

Earthquake Activity

City Distance Mag. Time & Date
Minimum magnitude displayed is 2.5.

Coastal Water Temperatures

Place Temperature

Nearby Weather Stations